sensor_id;sensor_type;location;lat;lon;timestamp;P1;P2;P0
75960;PMS7003;64644;48.914;2.254;2024-01-15T00:01:11;37.50;32.75;18.75
75960;PMS7003;64644;48.914;2.254;2024-01-15T00:03:36;27.25;24.75;18.00
75960;PMS7003;64644;48.914;2.254;2024-01-15T00:06:02;27.00;21.00;14.33
75960;PMS7003;64644;48.914;2.254;2024-01-15T00:08:27;29.50;24.50;15.50
75960;PMS7003;64644;48.914;2.254;2024-01-15T00:10:52;30.00;23.67;14.33
75960;PMS7003;64644;48.914;2.254;2024-01-15T00:13:18;31.25;26.25;18.25
75960;PMS7003;64644;48.914;2.254;2024-01-15T00:15:43;23.00;22.00;15.67
75960;PMS7003;64644;48.914;2.254;2024-01-15T00:18:08;28.00;25.00;15.75
75960;PMS7003;64644;48.914;2.254;2024-01-15T00:20:34;28.25;24.75;15.75
75960;PMS7003;64644;48.914;2.254;2024-01-15T00:22:59;34.25;30.00;19.00
75960;PMS7003;64644;48.914;2.254;2024-01-15T00:25:25;24.50;21.25;16.50
75960;PMS7003;64644;48.914;2.254;2024-01-15T00:27:50;21.67;20.33;13.67
75960;PMS7003;64644;48.914;2.254;2024-01-15T00:30:15;27.33;21.67;15.00
75960;PMS7003;64644;48.914;2.254;2024-01-15T00:32:41;27.50;26.25;15.50
75960;PMS7003;64644;48.914;2.254;2024-01-15T00:35:06;23.25;20.50;15.00
75960;PMS7003;64644;48.914;2.254;2024-01-15T00:37:31;21.50;19.50;13.50
75960;PMS7003;64644;48.914;2.254;2024-01-15T00:39:57;27.67;24.33;15.00
75960;PMS7003;64644;48.914;2.254;2024-01-15T00:42:22;25.50;22.50;16.00
75960;PMS7003;64644;48.914;2.254;2024-01-15T00:44:48;21.50;21.50;13.50
75960;PMS7003;64644;48.914;2.254;2024-01-15T00:47:13;25.25;22.75;15.00
75960;PMS7003;64644;48.914;2.254;2024-01-15T00:49:39;17.50;16.00;13.00
75960;PMS7003;64644;48.914;2.254;2024-01-15T00:52:04;25.50;23.00;15.00
75960;PMS7003;64644;48.914;2.254;2024-01-15T00:54:30;24.00;21.00;13.50
75960;PMS7003;64644;48.914;2.254;2024-01-15T00:56:55;30.67;28.33;14.67
75960;PMS7003;64644;48.914;2.254;2024-01-15T00:59:21;20.50;19.00;13.00
75960;PMS7003;64644;48.914;2.254;2024-01-15T01:01:46;23.00;21.75;12.50
75960;PMS7003;64644;48.914;2.254;2024-01-15T01:04:12;33.50;26.00;16.50
75960;PMS7003;64644;48.914;2.254;2024-01-15T01:06:38;24.75;22.50;15.00
75960;PMS7003;64644;48.914;2.254;2024-01-15T01:09:04;24.50;22.25;14.50
75960;PMS7003;64644;48.914;2.254;2024-01-15T01:11:30;22.00;20.00;14.00
75960;PMS7003;64644;48.914;2.254;2024-01-15T01:13:56;23.75;20.25;12.50
75960;PMS7003;64644;48.914;2.254;2024-01-15T01:16:22;22.00;22.00;15.25
75960;PMS7003;64644;48.914;2.254;2024-01-15T01:18:48;23.25;21.00;12.75
75960;PMS7003;64644;48.914;2.254;2024-01-15T01:21:14;29.50;21.25;15.00
75960;PMS7003;64644;48.914;2.254;2024-01-15T01:23:40;24.25;20.75;13.00
75960;PMS7003;64644;48.914;2.254;2024-01-15T01:26:05;18.75;18.75;13.00
75960;PMS7003;64644;48.914;2.254;2024-01-15T01:28:30;28.33;22.67;13.67
75960;PMS7003;64644;48.914;2.254;2024-01-15T01:30:56;28.50;24.50;15.25
75960;PMS7003;64644;48.914;2.254;2024-01-15T01:33:21;21.00;21.00;13.75
75960;PMS7003;64644;48.914;2.254;2024-01-15T01:35:46;28.25;23.25;12.25
75960;PMS7003;64644;48.914;2.254;2024-01-15T01:38:12;32.50;25.50;16.75
75960;PMS7003;64644;48.914;2.254;2024-01-15T01:40:37;22.50;21.50;15.00
75960;PMS7003;64644;48.914;2.254;2024-01-15T01:43:04;30.50;21.75;12.75
75960;PMS7003;64644;48.914;2.254;2024-01-15T01:45:30;18.50;15.75;9.00
75960;PMS7003;64644;48.914;2.254;2024-01-15T01:47:55;30.25;23.50;13.00
75960;PMS7003;64644;48.914;2.254;2024-01-15T01:50:21;27.50;22.50;15.25
75960;PMS7003;64644;48.914;2.254;2024-01-15T01:52:46;27.00;20.00;11.50
75960;PMS7003;64644;48.914;2.254;2024-01-15T01:55:13;23.75;21.75;14.00
75960;PMS7003;64644;48.914;2.254;2024-01-15T01:57:39;22.75;22.75;17.00
75960;PMS7003;64644;48.914;2.254;2024-01-15T02:00:06;23.00;20.00;13.50
75960;PMS7003;64644;48.914;2.254;2024-01-15T02:02:32;18.00;15.75;10.50
75960;PMS7003;64644;48.914;2.254;2024-01-15T02:04:58;23.75;19.25;12.00
75960;PMS7003;64644;48.914;2.254;2024-01-15T02:07:24;24.00;21.00;13.00
75960;PMS7003;64644;48.914;2.254;2024-01-15T02:09:49;24.25;22.75;13.00
75960;PMS7003;64644;48.914;2.254;2024-01-15T02:12:15;25.00;21.75;15.00
75960;PMS7003;64644;48.914;2.254;2024-01-15T02:14:40;20.00;20.00;11.75
75960;PMS7003;64644;48.914;2.254;2024-01-15T02:17:06;19.50;18.25;12.00
75960;PMS7003;64644;48.914;2.254;2024-01-15T02:19:31;27.67;24.33;13.67
75960;PMS7003;64644;48.914;2.254;2024-01-15T02:21:57;22.00;18.25;15.00
75960;PMS7003;64644;48.914;2.254;2024-01-15T02:24:22;19.50;16.00;10.75
75960;PMS7003;64644;48.914;2.254;2024-01-15T02:26:48;14.50;12.50;6.50
75960;PMS7003;64644;48.914;2.254;2024-01-15T02:29:14;24.50;20.00;12.75
75960;PMS7003;64644;48.914;2.254;2024-01-15T02:31:40;19.00;18.50;12.50
75960;PMS7003;64644;48.914;2.254;2024-01-15T02:34:05;21.50;20.50;12.50
75960;PMS7003;64644;48.914;2.254;2024-01-15T02:36:32;20.50;19.00;12.00
75960;PMS7003;64644;48.914;2.254;2024-01-15T02:38:58;18.50;18.50;12.25
75960;PMS7003;64644;48.914;2.254;2024-01-15T02:41:23;21.00;19.00;14.50
75960;PMS7003;64644;48.914;2.254;2024-01-15T02:43:48;24.00;21.33;12.33
75960;PMS7003;64644;48.914;2.254;2024-01-15T02:46:14;24.75;19.00;12.75
75960;PMS7003;64644;48.914;2.254;2024-01-15T02:48:41;19.25;18.25;12.00
75960;PMS7003;64644;48.914;2.254;2024-01-15T02:51:06;25.75;24.75;13.00
75960;PMS7003;64644;48.914;2.254;2024-01-15T02:53:31;15.67;13.00;9.00
75960;PMS7003;64644;48.914;2.254;2024-01-15T02:55:57;23.25;16.75;12.75
75960;PMS7003;64644;48.914;2.254;2024-01-15T02:58:22;30.00;21.00;12.00
75960;PMS7003;64644;48.914;2.254;2024-01-15T03:00:47;24.67;22.00;13.00
75960;PMS7003;64644;48.914;2.254;2024-01-15T03:03:13;26.00;16.67;12.33
75960;PMS7003;64644;48.914;2.254;2024-01-15T03:05:38;19.50;18.25;10.50
75960;PMS7003;64644;48.914;2.254;2024-01-15T03:08:04;6.25;3.75;0.00
75960;PMS7003;64644;48.914;2.254;2024-01-15T03:10:29;22.00;21.50;13.00
75960;PMS7003;64644;48.914;2.254;2024-01-15T03:12:54;17.00;15.50;9.75
75960;PMS7003;64644;48.914;2.254;2024-01-15T03:15:20;21.00;18.25;13.00
75960;PMS7003;64644;48.914;2.254;2024-01-15T03:17:45;19.00;16.00;12.00
75960;PMS7003;64644;48.914;2.254;2024-01-15T03:20:10;18.67;18.67;13.33
75960;PMS7003;64644;48.914;2.254;2024-01-15T03:22:36;22.50;18.25;12.00
75960;PMS7003;64644;48.914;2.254;2024-01-15T03:25:01;24.00;20.33;12.67
75960;PMS7003;64644;48.914;2.254;2024-01-15T03:27:27;18.75;15.75;9.75
75960;PMS7003;64644;48.914;2.254;2024-01-15T03:29:52;24.25;21.50;12.50
75960;PMS7003;64644;48.914;2.254;2024-01-15T03:32:17;22.00;16.00;10.00
75960;PMS7003;64644;48.914;2.254;2024-01-15T03:34:44;24.75;21.00;15.00
75960;PMS7003;64644;48.914;2.254;2024-01-15T03:37:10;25.25;22.50;13.00
75960;PMS7003;64644;48.914;2.254;2024-01-15T03:39:35;26.00;18.75;12.50
75960;PMS7003;64644;48.914;2.254;2024-01-15T03:42:00;20.75;20.00;12.00
75960;PMS7003;64644;48.914;2.254;2024-01-15T03:44:26;15.67;13.00;10.67
75960;PMS7003;64644;48.914;2.254;2024-01-15T03:46:51;21.75;20.50;12.50
75960;PMS7003;64644;48.914;2.254;2024-01-15T03:49:16;22.25;16.00;13.00
75960;PMS7003;64644;48.914;2.254;2024-01-15T03:51:42;15.50;15.50;10.50
75960;PMS7003;64644;48.914;2.254;2024-01-15T03:54:07;18.25;15.50;9.25
75960;PMS7003;64644;48.914;2.254;2024-01-15T03:56:32;24.25;21.25;12.75
75960;PMS7003;64644;48.914;2.254;2024-01-15T03:58:58;18.67;17.33;12.67
75960;PMS7003;64644;48.914;2.254;2024-01-15T04:01:23;16.67;15.33;10.00
75960;PMS7003;64644;48.914;2.254;2024-01-15T04:03:48;26.00;19.00;11.33
75960;PMS7003;64644;48.914;2.254;2024-01-15T04:06:14;16.00;15.67;11.33
75960;PMS7003;64644;48.914;2.254;2024-01-15T04:08:39;19.00;15.75;10.50
75960;PMS7003;64644;48.914;2.254;2024-01-15T04:11:04;21.50;17.00;12.00
75960;PMS7003;64644;48.914;2.254;2024-01-15T04:13:32;20.00;17.00;12.00
75960;PMS7003;64644;48.914;2.254;2024-01-15T04:15:57;18.75;16.00;10.00
75960;PMS7003;64644;48.914;2.254;2024-01-15T04:18:23;20.00;18.50;11.00
75960;PMS7003;64644;48.914;2.254;2024-01-15T04:20:48;19.00;15.00;9.00
75960;PMS7003;64644;48.914;2.254;2024-01-15T04:23:13;24.00;18.33;12.00
75960;PMS7003;64644;48.914;2.254;2024-01-15T04:25:39;19.00;16.00;10.00
75960;PMS7003;64644;48.914;2.254;2024-01-15T04:28:07;16.00;11.50;5.50
75960;PMS7003;64644;48.914;2.254;2024-01-15T04:30:33;14.75;14.50;10.00
75960;PMS7003;64644;48.914;2.254;2024-01-15T04:32:58;19.75;16.00;9.25
75960;PMS7003;64644;48.914;2.254;2024-01-15T04:35:24;15.00;12.67;8.33
75960;PMS7003;64644;48.914;2.254;2024-01-15T04:37:50;24.75;18.25;8.50
75960;PMS7003;64644;48.914;2.254;2024-01-15T04:40:16;24.67;18.00;10.67
75960;PMS7003;64644;48.914;2.254;2024-01-15T04:42:41;18.25;16.25;9.25
75960;PMS7003;64644;48.914;2.254;2024-01-15T04:45:06;14.50;14.50;9.00
75960;PMS7003;64644;48.914;2.254;2024-01-15T04:47:32;21.75;15.00;9.00
75960;PMS7003;64644;48.914;2.254;2024-01-15T04:49:57;18.00;15.00;9.25
75960;PMS7003;64644;48.914;2.254;2024-01-15T04:52:23;25.33;17.67;10.00
75960;PMS7003;64644;48.914;2.254;2024-01-15T04:54:48;13.25;13.00;9.00
75960;PMS7003;64644;48.914;2.254;2024-01-15T04:57:14;21.00;18.00;13.00
75960;PMS7003;64644;48.914;2.254;2024-01-15T04:59:39;24.50;16.00;9.75
75960;PMS7003;64644;48.914;2.254;2024-01-15T05:02:05;18.00;17.00;9.75
75960;PMS7003;64644;48.914;2.254;2024-01-15T05:04:30;15.00;14.00;6.75
75960;PMS7003;64644;48.914;2.254;2024-01-15T05:06:56;18.25;15.25;10.00
75960;PMS7003;64644;48.914;2.254;2024-01-15T05:09:21;15.50;14.75;9.50
75960;PMS7003;64644;48.914;2.254;2024-01-15T05:11:46;18.25;14.25;9.00
75960;PMS7003;64644;48.914;2.254;2024-01-15T05:14:12;15.33;12.67;9.00
75960;PMS7003;64644;48.914;2.254;2024-01-15T05:16:46;20.75;14.00;8.50
75960;PMS7003;64644;48.914;2.254;2024-01-15T05:19:12;16.75;11.50;9.00
75960;PMS7003;64644;48.914;2.254;2024-01-15T05:21:38;18.75;17.50;12.00
75960;PMS7003;64644;48.914;2.254;2024-01-15T05:24:04;18.25;15.25;9.50
75960;PMS7003;64644;48.914;2.254;2024-01-15T05:26:29;17.00;15.50;8.50
75960;PMS7003;64644;48.914;2.254;2024-01-15T05:28:55;21.67;16.67;10.00
75960;PMS7003;64644;48.914;2.254;2024-01-15T05:31:20;20.75;18.75;11.00
75960;PMS7003;64644;48.914;2.254;2024-01-15T05:33:46;23.75;17.25;10.00
75960;PMS7003;64644;48.914;2.254;2024-01-15T05:36:11;18.25;15.25;9.50
75960;PMS7003;64644;48.914;2.254;2024-01-15T05:38:36;17.25;9.75;9.00
75960;PMS7003;64644;48.914;2.254;2024-01-15T05:41:02;16.50;15.25;9.75
75960;PMS7003;64644;48.914;2.254;2024-01-15T05:43:27;13.00;12.50;9.00
75960;PMS7003;64644;48.914;2.254;2024-01-15T05:45:52;19.50;18.00;9.00
75960;PMS7003;64644;48.914;2.254;2024-01-15T05:48:18;16.75;13.00;9.00
75960;PMS7003;64644;48.914;2.254;2024-01-15T05:50:43;15.75;15.75;9.00
75960;PMS7003;64644;48.914;2.254;2024-01-15T05:53:09;17.50;15.75;11.50
75960;PMS7003;64644;48.914;2.254;2024-01-15T05:55:35;12.00;9.00;6.00
75960;PMS7003;64644;48.914;2.254;2024-01-15T05:58:03;19.25;17.25;10.00
75960;PMS7003;64644;48.914;2.254;2024-01-15T06:00:28;16.25;16.25;10.25
75960;PMS7003;64644;48.914;2.254;2024-01-15T06:02:54;18.75;17.50;11.00
75960;PMS7003;64644;48.914;2.254;2024-01-15T06:05:20;12.00;12.00;6.75
75960;PMS7003;64644;48.914;2.254;2024-01-15T06:07:46;15.25;13.50;9.00
75960;PMS7003;64644;48.914;2.254;2024-01-15T06:10:11;16.75;15.00;10.50
75960;PMS7003;64644;48.914;2.254;2024-01-15T06:12:36;21.00;15.50;8.00
75960;PMS7003;64644;48.914;2.254;2024-01-15T06:15:02;20.50;16.50;12.00
75960;PMS7003;64644;48.914;2.254;2024-01-15T06:17:27;12.50;9.25;5.00
75960;PMS7003;64644;48.914;2.254;2024-01-15T06:19:53;14.25;12.50;7.00
75960;PMS7003;64644;48.914;2.254;2024-01-15T06:22:18;15.00;12.00;7.00
75960;PMS7003;64644;48.914;2.254;2024-01-15T06:24:43;16.50;13.50;10.00
75960;PMS7003;64644;48.914;2.254;2024-01-15T06:27:09;18.67;16.00;9.33
75960;PMS7003;64644;48.914;2.254;2024-01-15T06:29:36;15.75;15.25;9.25
75960;PMS7003;64644;48.914;2.254;2024-01-15T06:32:02;17.50;12.75;8.50
75960;PMS7003;64644;48.914;2.254;2024-01-15T06:34:28;15.50;12.00;7.50
75960;PMS7003;64644;48.914;2.254;2024-01-15T06:36:53;15.00;10.67;6.67
75960;PMS7003;64644;48.914;2.254;2024-01-15T06:39:19;19.25;16.00;10.00
75960;PMS7003;64644;48.914;2.254;2024-01-15T06:41:44;16.75;12.00;7.50
75960;PMS7003;64644;48.914;2.254;2024-01-15T06:44:10;18.75;13.50;7.00
75960;PMS7003;64644;48.914;2.254;2024-01-15T06:46:36;15.75;12.50;9.00
75960;PMS7003;64644;48.914;2.254;2024-01-15T06:49:01;23.50;17.00;9.50
75960;PMS7003;64644;48.914;2.254;2024-01-15T06:51:27;12.25;11.00;9.50
75960;PMS7003;64644;48.914;2.254;2024-01-15T06:53:52;12.75;12.25;7.50
75960;PMS7003;64644;48.914;2.254;2024-01-15T06:56:17;22.67;15.33;10.67
75960;PMS7003;64644;48.914;2.254;2024-01-15T06:58:43;24.33;16.67;10.00
75960;PMS7003;64644;48.914;2.254;2024-01-15T07:01:08;18.00;15.67;11.33
75960;PMS7003;64644;48.914;2.254;2024-01-15T07:03:33;19.67;16.67;10.00
75960;PMS7003;64644;48.914;2.254;2024-01-15T07:05:58;15.33;12.00;7.00
75960;PMS7003;64644;48.914;2.254;2024-01-15T07:08:24;16.75;15.75;8.50
75960;PMS7003;64644;48.914;2.254;2024-01-15T07:10:49;12.67;9.67;3.00
75960;PMS7003;64644;48.914;2.254;2024-01-15T07:13:14;16.00;13.00;6.33
75960;PMS7003;64644;48.914;2.254;2024-01-15T07:15:40;8.33;4.00;3.33
75960;PMS7003;64644;48.914;2.254;2024-01-15T07:18:05;18.33;16.67;8.33
75960;PMS7003;64644;48.914;2.254;2024-01-15T07:20:30;18.25;17.50;11.50
75960;PMS7003;64644;48.914;2.254;2024-01-15T07:22:56;18.33;16.00;10.00
75960;PMS7003;64644;48.914;2.254;2024-01-15T07:25:21;23.25;21.00;14.00
75960;PMS7003;64644;48.914;2.254;2024-01-15T07:27:47;18.00;15.75;11.50
75960;PMS7003;64644;48.914;2.254;2024-01-15T07:30:12;25.00;20.00;15.25
75960;PMS7003;64644;48.914;2.254;2024-01-15T07:32:38;18.50;18.00;12.75
75960;PMS7003;64644;48.914;2.254;2024-01-15T07:35:04;15.25;15.25;12.25
75960;PMS7003;64644;48.914;2.254;2024-01-15T07:37:30;21.00;21.00;13.00
75960;PMS7003;64644;48.914;2.254;2024-01-15T07:39:55;18.00;15.50;9.00
75960;PMS7003;64644;48.914;2.254;2024-01-15T07:42:20;20.50;16.00;10.00
75960;PMS7003;64644;48.914;2.254;2024-01-15T07:44:46;13.67;13.67;9.33
75960;PMS7003;64644;48.914;2.254;2024-01-15T07:47:11;21.50;21.50;12.75
75960;PMS7003;64644;48.914;2.254;2024-01-15T07:49:37;21.00;16.50;12.25
75960;PMS7003;64644;48.914;2.254;2024-01-15T07:52:02;21.67;14.67;12.33
75960;PMS7003;64644;48.914;2.254;2024-01-15T07:54:30;24.25;19.00;14.50
75960;PMS7003;64644;48.914;2.254;2024-01-15T07:56:58;17.50;17.50;12.50
75960;PMS7003;64644;48.914;2.254;2024-01-15T07:59:25;21.00;16.50;10.50
75960;PMS7003;64644;48.914;2.254;2024-01-15T08:01:51;16.75;14.50;12.00
75960;PMS7003;64644;48.914;2.254;2024-01-15T08:04:17;19.75;19.75;12.25
75960;PMS7003;64644;48.914;2.254;2024-01-15T08:06:42;25.75;21.75;15.25
75960;PMS7003;64644;48.914;2.254;2024-01-15T08:09:08;21.75;19.50;12.00
75960;PMS7003;64644;48.914;2.254;2024-01-15T08:11:33;24.75;22.00;13.50
75960;PMS7003;64644;48.914;2.254;2024-01-15T08:13:59;25.25;21.75;12.75
75960;PMS7003;64644;48.914;2.254;2024-01-15T08:16:25;22.50;20.75;14.50
75960;PMS7003;64644;48.914;2.254;2024-01-15T08:18:52;27.50;19.50;14.50
75960;PMS7003;64644;48.914;2.254;2024-01-15T08:21:17;20.00;18.75;12.00
75960;PMS7003;64644;48.914;2.254;2024-01-15T08:23:42;24.67;21.67;13.00
75960;PMS7003;64644;48.914;2.254;2024-01-15T08:26:08;17.33;15.67;11.00
75960;PMS7003;64644;48.914;2.254;2024-01-15T08:28:34;25.50;19.50;12.25
75960;PMS7003;64644;48.914;2.254;2024-01-15T08:30:59;23.00;17.50;12.00
75960;PMS7003;64644;48.914;2.254;2024-01-15T08:33:24;22.00;18.33;13.00
75960;PMS7003;64644;48.914;2.254;2024-01-15T08:35:50;21.33;21.00;13.00
75960;PMS7003;64644;48.914;2.254;2024-01-15T08:38:15;28.67;23.33;14.33
75960;PMS7003;64644;48.914;2.254;2024-01-15T08:40:40;14.33;14.33;12.00
75960;PMS7003;64644;48.914;2.254;2024-01-15T08:43:05;17.67;17.67;13.67
75960;PMS7003;64644;48.914;2.254;2024-01-15T08:45:31;29.00;23.75;14.00
75960;PMS7003;64644;48.914;2.254;2024-01-15T08:47:57;25.50;22.00;15.50
75960;PMS7003;64644;48.914;2.254;2024-01-15T08:50:22;22.50;21.00;15.25
75960;PMS7003;64644;48.914;2.254;2024-01-15T08:52:48;18.67;15.67;9.00
75960;PMS7003;64644;48.914;2.254;2024-01-15T08:55:13;23.00;18.75;11.50
75960;PMS7003;64644;48.914;2.254;2024-01-15T08:57:38;27.67;25.67;16.00
75960;PMS7003;64644;48.914;2.254;2024-01-15T09:00:04;22.75;21.25;12.75
75960;PMS7003;64644;48.914;2.254;2024-01-15T09:02:33;16.50;16.50;12.50
75960;PMS7003;64644;48.914;2.254;2024-01-15T09:04:59;26.00;19.75;12.50
75960;PMS7003;64644;48.914;2.254;2024-01-15T09:07:24;24.75;21.50;13.00
75960;PMS7003;64644;48.914;2.254;2024-01-15T09:09:51;22.00;19.00;13.50
75960;PMS7003;64644;48.914;2.254;2024-01-15T09:12:16;15.75;15.50;12.25
75960;PMS7003;64644;48.914;2.254;2024-01-15T09:14:43;18.50;18.50;12.75
75960;PMS7003;64644;48.914;2.254;2024-01-15T09:17:08;20.00;18.50;14.00
75960;PMS7003;64644;48.914;2.254;2024-01-15T09:19:34;27.50;21.25;15.00
75960;PMS7003;64644;48.914;2.254;2024-01-15T09:21:59;25.00;22.00;13.00
75960;PMS7003;64644;48.914;2.254;2024-01-15T09:24:25;23.50;19.50;14.50
75960;PMS7003;64644;48.914;2.254;2024-01-15T09:26:50;21.75;21.00;13.00
75960;PMS7003;64644;48.914;2.254;2024-01-15T09:29:15;21.75;13.50;9.50
75960;PMS7003;64644;48.914;2.254;2024-01-15T09:31:41;19.00;17.00;9.50
75960;PMS7003;64644;48.914;2.254;2024-01-15T09:34:06;18.00;16.00;11.50
75960;PMS7003;64644;48.914;2.254;2024-01-15T09:36:32;18.00;18.00;11.33
75960;PMS7003;64644;48.914;2.254;2024-01-15T09:38:57;13.67;10.67;7.00
75960;PMS7003;64644;48.914;2.254;2024-01-15T09:41:22;18.00;16.00;9.00
75960;PMS7003;64644;48.914;2.254;2024-01-15T09:43:48;17.25;17.25;11.00
75960;PMS7003;64644;48.914;2.254;2024-01-15T09:46:14;20.25;18.00;11.00
75960;PMS7003;64644;48.914;2.254;2024-01-15T09:48:40;19.50;16.25;10.00
75960;PMS7003;64644;48.914;2.254;2024-01-15T09:51:06;22.00;18.75;12.00
75960;PMS7003;64644;48.914;2.254;2024-01-15T09:53:32;20.25;15.50;10.00
75960;PMS7003;64644;48.914;2.254;2024-01-15T09:55:59;15.00;13.50;10.00
75960;PMS7003;64644;48.914;2.254;2024-01-15T09:58:25;19.00;16.50;12.00
75960;PMS7003;64644;48.914;2.254;2024-01-15T10:00:50;23.25;18.00;11.25
75960;PMS7003;64644;48.914;2.254;2024-01-15T10:03:16;14.75;14.75;11.25
75960;PMS7003;64644;48.914;2.254;2024-01-15T10:05:42;17.00;17.00;11.00
75960;PMS7003;64644;48.914;2.254;2024-01-15T10:08:08;10.75;9.50;7.00
75960;PMS7003;64644;48.914;2.254;2024-01-15T10:10:36;18.75;17.50;12.00
75960;PMS7003;64644;48.914;2.254;2024-01-15T10:13:02;25.25;20.75;12.75
75960;PMS7003;64644;48.914;2.254;2024-01-15T10:15:29;15.50;13.00;10.00
75960;PMS7003;64644;48.914;2.254;2024-01-15T10:17:54;16.50;16.00;10.00
75960;PMS7003;64644;48.914;2.254;2024-01-15T10:20:19;18.25;17.50;10.00
75960;PMS7003;64644;48.914;2.254;2024-01-15T10:22:47;15.50;13.50;10.00
75960;PMS7003;64644;48.914;2.254;2024-01-15T10:25:13;12.00;12.00;10.00
75960;PMS7003;64644;48.914;2.254;2024-01-15T10:27:40;8.00;8.00;7.00
75960;PMS7003;64644;48.914;2.254;2024-01-15T10:30:07;15.00;13.75;7.00
75960;PMS7003;64644;48.914;2.254;2024-01-15T10:32:33;5.50;5.50;4.00
75960;PMS7003;64644;48.914;2.254;2024-01-15T10:34:58;11.00;10.00;7.00
75960;PMS7003;64644;48.914;2.254;2024-01-15T10:37:24;4.75;4.75;3.50
75960;PMS7003;64644;48.914;2.254;2024-01-15T10:39:50;11.75;5.50;4.00
75960;PMS7003;64644;48.914;2.254;2024-01-15T10:42:16;10.00;7.00;5.00
75960;PMS7003;64644;48.914;2.254;2024-01-15T10:44:43;7.75;7.75;5.00
75960;PMS7003;64644;48.914;2.254;2024-01-15T10:47:09;8.00;7.00;5.00
75960;PMS7003;64644;48.914;2.254;2024-01-15T10:49:35;9.50;7.25;5.00
75960;PMS7003;64644;48.914;2.254;2024-01-15T10:52:01;11.67;7.33;4.33
75960;PMS7003;64644;48.914;2.254;2024-01-15T10:54:27;6.50;5.00;4.00
75960;PMS7003;64644;48.914;2.254;2024-01-15T10:56:53;6.00;5.00;2.00
75960;PMS7003;64644;48.914;2.254;2024-01-15T10:59:20;5.00;4.00;2.00
75960;PMS7003;64644;48.914;2.254;2024-01-15T11:01:47;4.00;2.00;1.00
75960;PMS7003;64644;48.914;2.254;2024-01-15T11:04:14;4.00;4.00;2.00
75960;PMS7003;64644;48.914;2.254;2024-01-15T11:06:45;3.00;2.00;1.00
75960;PMS7003;64644;48.914;2.254;2024-01-15T11:09:11;4.50;2.00;1.00
75960;PMS7003;64644;48.914;2.254;2024-01-15T11:11:43;2.00;2.00;1.00
75960;PMS7003;64644;48.914;2.254;2024-01-15T11:14:10;1.00;1.00;1.00
75960;PMS7003;64644;48.914;2.254;2024-01-15T11:22:08;1.25;1.25;1.00
75960;PMS7003;64644;48.914;2.254;2024-01-15T11:24:40;1.75;1.75;1.25
75960;PMS7003;64644;48.914;2.254;2024-01-15T11:27:06;3.00;3.00;1.50
75960;PMS7003;64644;48.914;2.254;2024-01-15T11:29:34;4.00;4.00;2.00
75960;PMS7003;64644;48.914;2.254;2024-01-15T11:32:07;0.00;0.00;0.00
75960;PMS7003;64644;48.914;2.254;2024-01-15T11:37:23;1.00;1.00;1.00
75960;PMS7003;64644;48.914;2.254;2024-01-15T11:39:50;5.00;1.00;1.00
75960;PMS7003;64644;48.914;2.254;2024-01-15T11:42:19;4.00;1.25;1.00
75960;PMS7003;64644;48.914;2.254;2024-01-15T11:44:46;1.25;1.00;1.00
75960;PMS7003;64644;48.914;2.254;2024-01-15T11:47:12;4.25;4.00;1.75
75960;PMS7003;64644;48.914;2.254;2024-01-15T11:52:36;4.50;3.00;1.00
75960;PMS7003;64644;48.914;2.254;2024-01-15T11:55:11;1.00;1.00;1.00
75960;PMS7003;64644;48.914;2.254;2024-01-15T11:57:51;2.00;1.00;1.00
75960;PMS7003;64644;48.914;2.254;2024-01-15T12:00:19;1.75;1.00;1.00
75960;PMS7003;64644;48.914;2.254;2024-01-15T12:02:46;1.00;1.00;0.50
75960;PMS7003;64644;48.914;2.254;2024-01-15T12:05:13;1.00;1.00;1.00
75960;PMS7003;64644;48.914;2.254;2024-01-15T12:07:42;1.00;1.00;1.00
75960;PMS7003;64644;48.914;2.254;2024-01-15T12:10:09;1.00;1.00;0.25
75960;PMS7003;64644;48.914;2.254;2024-01-15T12:15:31;1.75;1.75;1.00
75960;PMS7003;64644;48.914;2.254;2024-01-15T12:17:58;10.00;6.00;4.50
75960;PMS7003;64644;48.914;2.254;2024-01-15T12:20:25;7.50;6.00;4.00
75960;PMS7003;64644;48.914;2.254;2024-01-15T12:22:51;4.25;4.25;3.50
75960;PMS7003;64644;48.914;2.254;2024-01-15T12:25:17;2.00;2.00;1.00
75960;PMS7003;64644;48.914;2.254;2024-01-15T12:27:42;3.00;3.00;1.00
75960;PMS7003;64644;48.914;2.254;2024-01-15T12:30:10;2.00;2.00;2.00
75960;PMS7003;64644;48.914;2.254;2024-01-15T12:32:36;0.00;0.00;0.00
75960;PMS7003;64644;48.914;2.254;2024-01-15T12:35:02;1.00;0.25;0.00
75960;PMS7003;64644;48.914;2.254;2024-01-15T12:37:27;1.00;0.00;0.00
75960;PMS7003;64644;48.914;2.254;2024-01-15T12:39:54;0.75;0.75;0.00
75960;PMS7003;64644;48.914;2.254;2024-01-15T12:42:20;1.00;1.00;0.00
75960;PMS7003;64644;48.914;2.254;2024-01-15T12:44:46;0.25;0.25;0.00
75960;PMS7003;64644;48.914;2.254;2024-01-15T12:47:12;0.00;0.00;0.00
75960;PMS7003;64644;48.914;2.254;2024-01-15T12:49:38;1.00;1.00;1.00
75960;PMS7003;64644;48.914;2.254;2024-01-15T12:52:07;1.75;1.75;0.50
75960;PMS7003;64644;48.914;2.254;2024-01-15T12:54:34;0.75;0.75;0.00
75960;PMS7003;64644;48.914;2.254;2024-01-15T12:56:59;1.00;1.00;0.00
75960;PMS7003;64644;48.914;2.254;2024-01-15T12:59:24;1.50;1.50;1.00
75960;PMS7003;64644;48.914;2.254;2024-01-15T13:01:50;1.00;1.00;0.00
75960;PMS7003;64644;48.914;2.254;2024-01-15T13:04:22;0.25;0.25;0.25
75960;PMS7003;64644;48.914;2.254;2024-01-15T13:06:48;0.25;0.25;0.00
75960;PMS7003;64644;48.914;2.254;2024-01-15T13:09:14;1.50;1.00;0.25
75960;PMS7003;64644;48.914;2.254;2024-01-15T13:11:39;0.00;0.00;0.00
75960;PMS7003;64644;48.914;2.254;2024-01-15T13:14:05;1.00;1.00;0.00
75960;PMS7003;64644;48.914;2.254;2024-01-15T13:16:30;1.25;1.25;1.00
75960;PMS7003;64644;48.914;2.254;2024-01-15T13:18:56;1.00;1.00;1.00
75960;PMS7003;64644;48.914;2.254;2024-01-15T13:21:21;1.00;1.00;0.00
75960;PMS7003;64644;48.914;2.254;2024-01-15T13:23:47;0.00;0.00;0.00
75960;PMS7003;64644;48.914;2.254;2024-01-15T13:26:12;0.50;0.50;0.00
75960;PMS7003;64644;48.914;2.254;2024-01-15T13:28:38;0.00;0.00;0.00
75960;PMS7003;64644;48.914;2.254;2024-01-15T13:31:03;0.00;0.00;0.00
75960;PMS7003;64644;48.914;2.254;2024-01-15T13:33:29;0.00;0.00;0.00
75960;PMS7003;64644;48.914;2.254;2024-01-15T13:35:55;0.00;0.00;0.00
75960;PMS7003;64644;48.914;2.254;2024-01-15T13:38:20;0.75;0.00;0.00
75960;PMS7003;64644;48.914;2.254;2024-01-15T13:40:46;0.50;0.00;0.00
75960;PMS7003;64644;48.914;2.254;2024-01-15T13:43:11;0.75;0.00;0.00
75960;PMS7003;64644;48.914;2.254;2024-01-15T13:45:39;0.00;0.00;0.00
75960;PMS7003;64644;48.914;2.254;2024-01-15T13:48:04;1.25;0.50;0.00
75960;PMS7003;64644;48.914;2.254;2024-01-15T13:50:30;0.00;0.00;0.00
75960;PMS7003;64644;48.914;2.254;2024-01-15T13:52:56;1.00;0.50;0.50
75960;PMS7003;64644;48.914;2.254;2024-01-15T13:55:22;0.25;0.25;0.25
75960;PMS7003;64644;48.914;2.254;2024-01-15T13:57:47;0.00;0.00;0.00
75960;PMS7003;64644;48.914;2.254;2024-01-15T14:00:13;2.00;0.67;0.67
75960;PMS7003;64644;48.914;2.254;2024-01-15T14:02:43;1.25;1.25;0.50